Time;durP1;ratioP1;P1;durP2;ratioP2;P2;SDS_P1;SDS_P2;PMS_P1;PMS_P2;Temp;Humidity;BMP_temperature;BMP_pressure;BME280_temperature;BME280_humidity;BME280_pressure;Samples;Min_cycle;Max_cycle;Signal;HPM_P1;HPM_P2
2021/01/27 00:01:49;;;;;;;3.93;3.53;;;3.00;99.90;;;;;;5015997;28;20175;-61
2021/01/27 00:04:15;;;;;;;5.80;3.90;;;3.10;99.90;;;;;;5015681;28;20553;-61
2021/01/27 00:06:41;;;;;;;4.50;3.90;;;3.10;99.90;;;;;;4998752;28;20183;-60
2021/01/27 00:09:06;;;;;;;5.13;4.60;;;3.10;99.90;;;;;;5015624;28;20936;-61
2021/01/27 00:11:32;;;;;;;5.40;4.90;;;3.10;99.90;;;;;;5015578;28;20525;-61
2021/01/27 00:13:58;;;;;;;6.20;5.60;;;3.20;99.90;;;;;;5015549;28;20195;-61
2021/01/27 00:16:23;;;;;;;5.63;5.13;;;3.30;99.90;;;;;;5015569;28;20706;-61
2021/01/27 00:18:49;;;;;;;7.10;5.70;;;3.10;99.90;;;;;;5015771;28;20226;-60
2021/01/27 00:21:15;;;;;;;5.80;5.17;;;3.00;99.90;;;;;;5015107;28;20623;-61
2021/01/27 00:23:40;;;;;;;7.60;5.87;;;2.90;99.90;;;;;;5015282;28;20189;-61
2021/01/27 00:26:06;;;;;;;6.80;5.50;;;2.80;99.90;;;;;;5015350;28;20210;-61
2021/01/27 00:28:31;;;;;;;5.17;4.50;;;2.90;99.90;;;;;;5015567;28;20191;-61
2021/01/27 00:30:57;;;;;;;8.80;5.17;;;3.10;99.90;;;;;;5015268;28;20241;-60
2021/01/27 00:33:23;;;;;;;7.33;5.50;;;3.20;99.90;;;;;;5015141;28;20646;-61
2021/01/27 00:35:49;;;;;;;6.10;5.50;;;3.10;99.90;;;;;;5015306;28;20266;-60
2021/01/27 00:38:18;;;;;;;6.40;5.80;;;3.00;99.90;;;;;;5015075;28;20219;-61
2021/01/27 00:40:44;;;;;;;6.77;5.37;;;3.00;99.90;;;;;;5014954;28;20423;-60
2021/01/27 00:43:10;;;;;;;8.30;6.90;;;3.00;99.90;;;;;;5030153;28;20414;-61
2021/01/27 00:45:36;;;;;;;6.60;5.30;;;3.00;99.90;;;;;;5034879;28;20417;-61
2021/01/27 00:48:02;;;;;;;6.17;5.57;;;2.80;99.90;;;;;;5034522;28;20454;-61
2021/01/27 00:50:27;;;;;;;5.70;5.13;;;2.70;99.90;;;;;;5033321;28;20269;-61
2021/01/27 00:52:53;;;;;;;5.70;5.30;;;2.70;99.90;;;;;;5034800;28;20417;-61
2021/01/27 00:55:23;;;;;;;6.53;5.83;;;2.80;99.90;;;;;;5034840;28;20588;-61
2021/01/27 00:57:49;;;;;;;7.50;6.40;;;2.80;99.90;;;;;;5034744;28;20210;-61
2021/01/27 01:00:16;;;;;;;6.50;5.80;;;2.90;99.90;;;;;;5034670;28;20461;-60
2021/01/27 01:02:42;;;;;;;7.67;6.13;;;2.90;99.90;;;;;;5034354;28;20624;-60
2021/01/27 01:05:11;;;;;;;7.77;6.17;;;2.80;99.90;;;;;;5034366;28;20413;-60
2021/01/27 01:07:36;;;;;;;8.10;6.83;;;2.80;99.90;;;;;;5034386;28;20206;-59
2021/01/27 01:10:05;;;;;;;8.03;6.03;;;2.80;99.90;;;;;;5034451;28;20959;-61
2021/01/27 01:12:31;;;;;;;7.97;6.77;;;2.80;99.90;;;;;;5034337;28;20539;-61
2021/01/27 01:14:57;;;;;;;7.70;6.87;;;2.80;99.90;;;;;;5034136;28;20485;-60
2021/01/27 01:17:22;;;;;;;8.00;7.20;;;2.80;99.90;;;;;;5034201;28;20768;-61
2021/01/27 01:19:48;;;;;;;6.97;6.27;;;2.70;99.90;;;;;;5034333;28;20221;-61
2021/01/27 01:22:13;;;;;;;6.47;5.77;;;2.90;99.90;;;;;;5034454;28;20179;-61
2021/01/27 01:24:39;;;;;;;6.40;5.80;;;2.90;99.90;;;;;;5034444;28;20209;-61
2021/01/27 01:27:05;;;;;;;7.53;6.47;;;3.00;99.90;;;;;;5033881;28;20174;-61
2021/01/27 01:29:30;;;;;;;9.33;7.50;;;3.10;99.90;;;;;;5034099;28;20527;-61
2021/01/27 01:31:56;;;;;;;8.47;6.20;;;3.10;99.90;;;;;;5034084;28;20518;-61
2021/01/27 01:34:22;;;;;;;8.20;6.73;;;3.00;99.90;;;;;;5033823;28;20561;-60
2021/01/27 01:36:48;;;;;;;7.30;6.07;;;3.10;99.90;;;;;;5033888;28;20226;-61
2021/01/27 01:39:13;;;;;;;7.00;5.90;;;3.10;99.90;;;;;;5033733;28;20485;-61
2021/01/27 01:41:39;;;;;;;11.00;6.57;;;3.10;99.90;;;;;;5033954;28;20192;-60
2021/01/27 01:44:05;;;;;;;8.77;6.07;;;3.20;99.90;;;;;;5033924;28;20645;-61
2021/01/27 01:46:30;;;;;;;7.57;6.23;;;3.30;99.90;;;;;;5033886;28;20270;-60
2021/01/27 01:49:05;;;;;;;7.73;6.13;;;3.30;99.90;;;;;;5033949;28;20198;-61
2021/01/27 01:51:34;;;;;;;7.20;6.30;;;3.40;99.90;;;;;;5034535;28;20193;-61
2021/01/27 01:54:03;;;;;;;7.33;6.13;;;3.40;99.90;;;;;;5033513;28;20898;-61
2021/01/27 01:56:32;;;;;;;9.33;6.10;;;3.20;99.90;;;;;;5033695;28;20398;-61
2021/01/27 01:59:01;;;;;;;7.03;6.40;;;3.10;99.90;;;;;;5034022;28;20419;-60
2021/01/27 02:01:27;;;;;;;6.80;5.93;;;3.20;99.90;;;;;;5033627;28;20503;-63
2021/01/27 02:03:54;;;;;;;6.60;6.00;;;3.00;99.90;;;;;;5033552;28;20403;-60
2021/01/27 02:06:20;;;;;;;6.70;6.00;;;3.10;99.90;;;;;;5033523;28;20463;-60
2021/01/27 02:08:50;;;;;;;7.90;6.73;;;3.10;99.90;;;;;;5033627;28;20603;-61
2021/01/27 02:11:46;;;;;;;8.10;6.70;;;3.20;99.90;;;;;;5033764;28;20440;-61
2021/01/27 02:14:30;;;;;;;6.80;6.10;;;3.30;99.90;;;;;;5019950;28;20926;-61
2021/01/27 02:17:24;;;;;;;7.13;5.80;;;3.40;99.90;;;;;;5034162;28;20440;-61
2021/01/27 02:20:10;;;;;;;6.63;6.03;;;3.20;99.90;;;;;;5033516;28;20851;-61
2021/01/27 02:23:13;;;;;;;8.63;6.60;;;3.10;99.90;;;;;;5033656;28;20443;-61
2021/01/27 02:26:02;;;;;;;8.30;6.90;;;3.10;99.90;;;;;;5033520;28;20426;-59
2021/01/27 02:28:42;;;;;;;7.73;6.90;;;3.00;99.90;;;;;;5033294;28;20446;-60
2021/01/27 02:31:27;;;;;;;6.30;5.70;;;3.00;99.90;;;;;;5033261;28;20422;-61
2021/01/27 02:34:11;;;;;;;8.60;7.07;;;3.00;99.90;;;;;;5035452;28;20390;-61
2021/01/27 02:36:50;;;;;;;7.40;5.90;;;3.10;99.90;;;;;;5032984;28;20382;-61
2021/01/27 02:39:27;;;;;;;8.20;6.00;;;3.00;99.90;;;;;;5032989;28;20390;-61
2021/01/27 02:41:59;;;;;;;7.17;5.93;;;2.90;99.90;;;;;;5032916;28;20899;-61
2021/01/27 02:44:34;;;;;;;7.03;5.57;;;2.90;99.90;;;;;;5033237;28;20379;-61
2021/01/27 02:47:03;;;;;;;7.60;6.00;;;2.90;99.90;;;;;;5033090;28;20393;-60
2021/01/27 02:49:38;;;;;;;6.80;5.47;;;2.90;99.90;;;;;;5033117;28;20803;-61
2021/01/27 02:52:18;;;;;;;7.17;5.80;;;3.00;99.90;;;;;;5035423;28;20464;-61
2021/01/27 02:55:08;;;;;;;6.43;5.63;;;3.10;99.90;;;;;;5035959;28;20903;-60
2021/01/27 02:57:54;;;;;;;6.60;5.97;;;3.20;99.90;;;;;;5050525;28;20401;-61
2021/01/27 03:00:26;;;;;;;6.67;5.67;;;3.00;99.90;;;;;;5056873;28;20814;-61
2021/01/27 03:03:04;;;;;;;7.37;6.10;;;2.90;99.90;;;;;;5056607;28;20388;-61
2021/01/27 03:05:38;;;;;;;7.53;6.77;;;3.00;99.90;;;;;;5056906;28;20442;-61
2021/01/27 03:08:27;;;;;;;6.47;5.77;;;3.10;99.90;;;;;;5056970;28;20551;-61
2021/01/27 03:11:06;;;;;;;7.90;6.20;;;3.20;99.90;;;;;;5017058;28;20426;-61
2021/01/27 03:13:37;;;;;;;9.90;6.53;;;3.30;99.90;;;;;;5016860;28;20387;-61
2021/01/27 03:16:07;;;;;;;7.03;6.30;;;3.20;99.90;;;;;;5016654;28;20389;-61
2021/01/27 03:18:37;;;;;;;6.30;5.70;;;3.30;99.90;;;;;;5016585;28;20384;-61
2021/01/27 03:21:09;;;;;;;7.03;5.63;;;3.30;99.90;;;;;;5016661;28;20457;-61
2021/01/27 03:23:42;;;;;;;6.43;5.80;;;3.20;99.90;;;;;;4999856;28;20407;-59
2021/01/27 03:26:32;;;;;;;7.10;6.40;;;3.20;99.90;;;;;;5016322;28;20402;-61
2021/01/27 03:29:20;;;;;;;6.53;5.93;;;3.00;99.90;;;;;;5016879;28;20859;-58
2021/01/27 03:31:46;;;;;;;6.27;5.67;;;3.10;99.90;;;;;;5017330;28;20398;-60
2021/01/27 03:34:23;;;;;;;8.77;6.23;;;3.10;99.90;;;;;;5017913;28;20461;-59
2021/01/27 03:37:05;;;;;;;7.30;6.00;;;3.30;99.90;;;;;;5017643;28;20158;-60
2021/01/27 03:39:35;;;;;;;6.20;5.70;;;3.30;99.90;;;;;;4984397;28;20438;-61
2021/01/27 03:42:25;;;;;;;9.13;6.10;;;3.20;99.90;;;;;;5016075;28;20913;-60
2021/01/27 03:44:59;;;;;;;6.63;5.30;;;3.20;99.90;;;;;;5020175;28;20454;-61
2021/01/27 03:47:43;;;;;;;7.40;5.80;;;3.30;99.90;;;;;;5055753;28;20477;-61
2021/01/27 03:50:14;;;;;;;5.60;5.10;;;3.20;99.90;;;;;;5055923;28;20445;-61
2021/01/27 03:52:43;;;;;;;6.03;4.97;;;3.20;99.90;;;;;;5055935;28;20404;-60
2021/01/27 03:55:22;;;;;;;6.40;5.80;;;3.20;99.90;;;;;;5056228;28;20488;-61
2021/01/27 03:57:59;;;;;;;6.70;5.63;;;3.30;99.90;;;;;;5055773;28;20393;-61
2021/01/27 04:00:29;;;;;;;6.30;5.70;;;3.30;99.90;;;;;;5056129;28;20427;-61
2021/01/27 04:03:07;;;;;;;5.20;4.70;;;3.40;99.90;;;;;;5055457;28;20413;-60
2021/01/27 04:05:33;;;;;;;7.33;5.63;;;3.40;99.90;;;;;;5054986;28;20385;-61
2021/01/27 04:07:58;;;;;;;7.90;6.17;;;3.40;99.90;;;;;;5055529;28;20810;-60
2021/01/27 04:10:24;;;;;;;7.20;5.47;;;3.40;99.90;;;;;;5055335;28;20458;-61
2021/01/27 04:12:50;;;;;;;8.93;7.97;;;3.50;99.90;;;;;;5055366;28;20174;-60
2021/01/27 04:15:15;;;;;;;13.90;8.97;;;3.60;99.90;;;;;;5055502;28;20209;-61
2021/01/27 04:17:41;;;;;;;10.37;8.30;;;3.50;99.90;;;;;;5055143;28;20175;-61
2021/01/27 04:20:07;;;;;;;10.13;9.00;;;3.30;99.90;;;;;;5055092;28;20215;-61
2021/01/27 04:22:33;;;;;;;7.40;6.33;;;3.30;99.90;;;;;;5055027;28;20180;-61
2021/01/27 04:24:58;;;;;;;7.20;5.93;;;3.00;99.90;;;;;;5037680;28;20408;-60
2021/01/27 04:27:25;;;;;;;6.27;5.47;;;2.90;99.90;;;;;;5054950;28;20269;-61
2021/01/27 04:29:50;;;;;;;6.40;5.33;;;2.70;99.90;;;;;;5054868;28;20186;-61
2021/01/27 04:32:16;;;;;;;7.53;5.03;;;2.60;99.90;;;;;;5054806;28;20746;-61
2021/01/27 04:34:42;;;;;;;5.73;4.40;;;2.70;99.90;;;;;;5054827;28;20158;-61
2021/01/27 04:37:08;;;;;;;4.80;4.30;;;2.80;99.90;;;;;;5055031;28;20171;-61
2021/01/27 04:39:33;;;;;;;6.90;4.60;;;2.70;99.90;;;;;;5054235;28;20540;-61
2021/01/27 04:41:59;;;;;;;5.07;4.57;;;2.90;99.90;;;;;;5036751;28;20410;-61
2021/01/27 04:44:25;;;;;;;5.97;4.40;;;3.00;99.90;;;;;;5034932;28;20586;-61
2021/01/27 04:46:57;;;;;;;6.20;5.13;;;3.10;99.90;;;;;;5053483;28;20900;-61
2021/01/27 04:49:29;;;;;;;5.17;4.67;;;3.10;99.90;;;;;;5054875;28;20197;-61
2021/01/27 04:52:07;;;;;;;4.83;4.43;;;3.20;99.90;;;;;;5020620;28;20419;-61
2021/01/27 04:54:36;;;;;;;7.27;5.20;;;3.30;99.90;;;;;;5054711;28;20378;-61
2021/01/27 04:57:11;;;;;;;5.40;4.90;;;3.20;99.90;;;;;;5054795;28;20404;-61
2021/01/27 05:00:04;;;;;;;4.90;4.43;;;3.10;99.90;;;;;;5054779;28;20374;-60
2021/01/27 05:02:43;;;;;;;5.17;4.57;;;3.30;99.90;;;;;;5054833;28;20843;-61
2021/01/27 05:05:13;;;;;;;6.60;5.20;;;3.30;99.90;;;;;;5054649;28;20479;-60
2021/01/27 05:07:44;;;;;;;7.43;5.00;;;3.40;99.90;;;;;;5054927;28;20497;-59
2021/01/27 05:10:15;;;;;;;5.43;4.83;;;3.40;99.90;;;;;;5054490;28;20413;-61
2021/01/27 05:12:47;;;;;;;5.93;3.93;;;3.40;99.90;;;;;;5054460;28;20382;-61
2021/01/27 05:15:14;;;;;;;6.00;4.80;;;3.40;99.90;;;;;;5054397;28;20460;-61
2021/01/27 05:17:43;;;;;;;4.20;3.80;;;3.30;99.90;;;;;;5052874;28;20492;-61
2021/01/27 05:20:14;;;;;;;9.73;5.43;;;3.30;99.90;;;;;;5053780;28;20456;-61
2021/01/27 05:22:40;;;;;;;5.83;5.23;;;3.20;99.90;;;;;;5054312;28;20805;-61
2021/01/27 05:25:12;;;;;;;7.03;5.07;;;3.20;99.90;;;;;;5054077;28;20421;-61
2021/01/27 05:27:39;;;;;;;7.03;4.30;;;3.30;99.90;;;;;;5036140;28;20953;-62
2021/01/27 05:30:18;;;;;;;5.70;4.80;;;3.40;99.90;;;;;;5053907;28;20478;-60
2021/01/27 05:32:49;;;;;;;5.80;5.27;;;3.50;99.90;;;;;;5054023;28;20396;-59
2021/01/27 05:35:27;;;;;;;4.73;4.20;;;3.40;99.90;;;;;;5053931;28;20458;-60
2021/01/27 05:37:53;;;;;;;6.33;5.80;;;3.50;99.90;;;;;;5053543;28;20405;-60
2021/01/27 05:40:34;;;;;;;4.10;3.70;;;3.60;99.90;;;;;;5053584;28;20516;-60
2021/01/27 05:43:13;;;;;;;4.50;4.10;;;3.60;99.90;;;;;;5049046;28;20421;-61
2021/01/27 05:45:49;;;;;;;5.00;4.60;;;3.50;99.90;;;;;;5022426;28;20399;-61
2021/01/27 05:48:18;;;;;;;4.53;4.13;;;3.60;99.90;;;;;;5014165;28;20808;-61
2021/01/27 05:50:43;;;;;;;4.47;3.70;;;3.50;99.90;;;;;;5013998;28;20423;-58
2021/01/27 05:53:30;;;;;;;4.27;3.63;;;3.50;99.90;;;;;;5013790;28;20438;-61
2021/01/27 05:55:59;;;;;;;9.70;4.60;;;3.50;99.90;;;;;;5013919;28;20203;-61
2021/01/27 05:58:26;;;;;;;6.80;5.43;;;3.50;99.90;;;;;;5013690;28;20819;-61
2021/01/27 06:00:52;;;;;;;4.30;3.90;;;3.50;99.90;;;;;;5013836;28;20425;-62
2021/01/27 06:03:23;;;;;;;4.30;3.57;;;3.60;99.90;;;;;;5013756;28;20399;-61
2021/01/27 06:05:50;;;;;;;4.10;3.70;;;3.60;99.90;;;;;;5013819;28;20410;-61
2021/01/27 06:08:23;;;;;;;3.70;3.23;;;3.40;99.90;;;;;;5013488;28;20599;-61
2021/01/27 06:10:50;;;;;;;5.27;4.20;;;3.30;99.90;;;;;;5013627;28;20418;-61
2021/01/27 06:13:30;;;;;;;5.83;4.27;;;3.40;99.90;;;;;;5013435;28;20407;-61
2021/01/27 06:15:57;;;;;;;4.63;4.23;;;3.50;99.90;;;;;;5013816;28;20477;-61
2021/01/27 06:18:22;;;;;;;4.17;3.73;;;3.40;99.90;;;;;;5013507;28;20850;-60
2021/01/27 06:20:51;;;;;;;5.13;4.70;;;3.30;99.90;;;;;;5013232;28;20493;-61
2021/01/27 06:23:34;;;;;;;5.93;4.50;;;3.10;99.90;;;;;;5013390;28;20168;-60
2021/01/27 06:26:44;;;;;;;5.90;5.03;;;3.10;99.90;;;;;;5013563;28;20471;-61
2021/01/27 06:29:15;;;;;;;6.87;4.13;;;3.20;99.90;;;;;;5015774;28;20442;-61
2021/01/27 06:32:06;;;;;;;4.97;4.30;;;3.30;99.90;;;;;;5017383;28;20429;-60
2021/01/27 06:35:09;;;;;;;4.10;3.80;;;3.10;99.90;;;;;;5017704;28;20797;-59
2021/01/27 06:38:12;;;;;;;5.50;4.07;;;3.10;99.90;;;;;;5017433;28;20826;-60
2021/01/27 06:40:59;;;;;;;4.20;3.80;;;3.00;99.90;;;;;;5016965;28;20427;-61
2021/01/27 06:43:46;;;;;;;3.93;3.63;;;3.00;99.90;;;;;;5018049;28;20929;-61
2021/01/27 06:46:50;;;;;;;5.10;4.57;;;3.10;99.90;;;;;;5023003;28;20827;-60
2021/01/27 06:49:37;;;;;;;3.67;3.40;;;3.00;99.90;;;;;;5017081;28;20441;-61
2021/01/27 06:52:17;;;;;;;4.67;4.27;;;3.00;99.90;;;;;;5016715;28;20438;-61
2021/01/27 06:55:08;;;;;;;6.90;4.33;;;2.90;99.90;;;;;;5016969;28;20461;-61
2021/01/27 06:57:58;;;;;;;5.00;3.70;;;3.00;99.90;;;;;;4986236;28;20930;-62
2021/01/27 07:00:42;;;;;;;4.73;4.13;;;3.10;99.90;;;;;;5016608;28;20430;-61
2021/01/27 07:03:26;;;;;;;4.40;4.00;;;3.30;99.90;;;;;;5016777;28;20799;-61
2021/01/27 07:06:26;;;;;;;5.37;3.67;;;3.30;99.90;;;;;;5016508;28;20407;-60
2021/01/27 07:09:26;;;;;;;3.50;3.20;;;3.30;99.90;;;;;;5016690;28;20443;-62
2021/01/27 07:12:26;;;;;;;4.00;3.40;;;3.40;99.90;;;;;;5016412;28;20391;-61
2021/01/27 07:15:08;;;;;;;4.90;3.60;;;3.40;99.90;;;;;;5016533;28;20855;-61
2021/01/27 07:18:01;;;;;;;3.83;3.43;;;3.40;99.90;;;;;;4998791;28;20395;-61
2021/01/27 07:20:46;;;;;;;3.80;3.50;;;3.50;99.90;;;;;;5016082;28;20521;-60
2021/01/27 07:23:17;;;;;;;5.23;4.00;;;3.50;99.90;;;;;;5016408;28;20891;-60
2021/01/27 07:25:54;;;;;;;4.30;3.90;;;3.50;99.90;;;;;;5016724;28;20407;-62
2021/01/27 07:28:26;;;;;;;4.90;4.33;;;3.50;99.90;;;;;;5016775;28;20443;-61
2021/01/27 07:30:59;;;;;;;6.23;4.90;;;3.60;99.90;;;;;;5016965;28;20911;-61
2021/01/27 07:33:48;;;;;;;5.13;3.73;;;3.60;99.90;;;;;;5016986;28;20409;-60
2021/01/27 07:36:47;;;;;;;6.00;4.00;;;3.80;99.90;;;;;;5008185;28;20786;-61
2021/01/27 07:39:31;;;;;;;5.53;3.40;;;3.90;99.90;;;;;;5012759;28;20465;-61
2021/01/27 07:42:18;;;;;;;5.17;3.70;;;3.90;99.90;;;;;;5015243;28;20391;-61
2021/01/27 07:44:48;;;;;;;3.73;3.40;;;3.90;99.90;;;;;;5016263;28;20398;-61
2021/01/27 07:47:35;;;;;;;5.30;3.33;;;3.80;99.90;;;;;;5015957;28;20494;-61
2021/01/27 07:50:01;;;;;;;4.20;3.80;;;3.40;99.90;;;;;;5016465;28;20517;-60
2021/01/27 07:52:35;;;;;;;3.80;3.50;;;3.60;99.90;;;;;;5016131;28;20422;-61
2021/01/27 07:55:25;;;;;;;4.60;4.20;;;3.70;99.90;;;;;;5016220;28;20382;-61
2021/01/27 07:58:01;;;;;;;3.47;3.17;;;3.40;99.90;;;;;;5015708;28;20900;-61
2021/01/27 08:00:32;;;;;;;4.20;3.80;;;3.30;99.90;;;;;;5015692;28;20423;-60
2021/01/27 08:03:06;;;;;;;3.63;3.27;;;3.40;99.90;;;;;;5015938;28;20383;-62
2021/01/27 08:05:36;;;;;;;3.67;3.20;;;3.40;99.90;;;;;;5015961;28;20375;-62
2021/01/27 08:08:10;;;;;;;3.60;3.20;;;3.60;99.90;;;;;;4998158;28;20446;-61
2021/01/27 08:10:37;;;;;;;3.37;3.07;;;3.70;99.90;;;;;;5015885;28;20419;-61
2021/01/27 08:13:05;;;;;;;3.33;3.03;;;3.70;99.90;;;;;;5015944;28;20911;-60
2021/01/27 08:15:31;;;;;;;3.90;3.33;;;3.60;99.90;;;;;;5015549;28;20399;-59
2021/01/27 08:17:59;;;;;;;5.20;3.90;;;3.70;99.90;;;;;;5015496;28;20442;-60
2021/01/27 08:20:33;;;;;;;4.20;2.90;;;3.70;99.90;;;;;;5015064;28;20402;-62
2021/01/27 08:23:05;;;;;;;3.80;3.33;;;3.50;99.90;;;;;;5015375;28;20804;-61
2021/01/27 08:26:03;;;;;;;4.93;3.43;;;3.50;99.90;;;;;;5015553;28;20438;-62
2021/01/27 08:28:38;;;;;;;5.53;3.90;;;3.60;99.90;;;;;;4982578;28;20494;-61
2021/01/27 08:31:12;;;;;;;3.40;3.10;;;3.60;99.90;;;;;;5015386;28;20430;-60
2021/01/27 08:33:47;;;;;;;5.50;3.40;;;3.40;99.90;;;;;;5015783;28;20426;-61
2021/01/27 08:36:21;;;;;;;4.97;4.47;;;3.40;99.90;;;;;;5018640;28;20788;-61
2021/01/27 08:38:55;;;;;;;4.90;3.97;;;3.30;99.90;;;;;;5024066;28;20433;-60
2021/01/27 08:41:40;;;;;;;6.03;3.60;;;3.20;99.90;;;;;;5017074;28;20868;-61
2021/01/27 08:44:10;;;;;;;4.20;3.40;;;3.40;99.90;;;;;;5018937;28;20465;-60
2021/01/27 08:46:57;;;;;;;4.00;3.53;;;3.40;99.90;;;;;;5018162;28;20395;-60
2021/01/27 08:49:47;;;;;;;8.23;4.30;;;3.50;99.90;;;;;;5015096;28;20470;-60
2021/01/27 08:52:12;;;;;;;4.10;3.70;;;3.60;99.90;;;;;;5027078;28;20393;-62
2021/01/27 08:54:40;;;;;;;4.30;3.40;;;3.70;99.90;;;;;;5034756;28;20925;-61
2021/01/27 08:57:27;;;;;;;7.33;3.53;;;3.70;99.90;;;;;;5034466;28;20710;-60
2021/01/27 08:59:58;;;;;;;3.47;3.17;;;3.80;99.90;;;;;;5017406;28;20428;-60
2021/01/27 09:02:42;;;;;;;5.13;4.00;;;3.60;99.90;;;;;;5035026;28;20390;-61
2021/01/27 09:05:18;;;;;;;4.17;3.77;;;3.50;99.90;;;;;;5034936;28;20969;-58
2021/01/27 09:07:55;;;;;;;4.40;4.00;;;3.50;99.90;;;;;;5034164;28;20945;-59
2021/01/27 09:10:31;;;;;;;4.47;4.03;;;3.50;99.90;;;;;;5034541;28;20424;-59
2021/01/27 09:12:57;;;;;;;4.93;4.43;;;3.50;99.90;;;;;;5034753;28;20751;-58
2021/01/27 09:15:34;;;;;;;6.30;4.03;;;3.60;99.90;;;;;;5034546;28;20399;-58
2021/01/27 09:18:03;;;;;;;4.03;3.17;;;3.60;99.90;;;;;;5034505;28;20386;-58
2021/01/27 09:20:30;;;;;;;4.40;3.97;;;3.40;99.90;;;;;;5033789;28;20603;-60
2021/01/27 09:23:05;;;;;;;4.20;3.80;;;3.50;99.90;;;;;;5034228;28;20413;-59
2021/01/27 09:25:41;;;;;;;4.77;4.37;;;3.50;99.90;;;;;;5034141;28;20394;-59
2021/01/27 09:28:09;;;;;;;6.10;4.63;;;3.60;99.90;;;;;;5036016;28;21032;-58
2021/01/27 09:30:35;;;;;;;4.17;3.77;;;3.60;99.90;;;;;;5036373;28;20485;-57
2021/01/27 09:33:12;;;;;;;4.13;3.77;;;3.60;99.90;;;;;;5036094;28;20459;-59
2021/01/27 09:35:39;;;;;;;5.10;4.43;;;3.70;99.90;;;;;;5017508;28;20924;-59
2021/01/27 09:38:18;;;;;;;6.67;6.07;;;3.60;99.90;;;;;;5035106;28;20410;-60
2021/01/27 09:40:59;;;;;;;3.90;3.60;;;3.60;99.90;;;;;;5035135;28;20422;-59
2021/01/27 09:43:25;;;;;;;5.80;4.03;;;3.70;99.90;;;;;;5034970;28;20410;-59
2021/01/27 09:45:52;;;;;;;5.83;5.10;;;3.60;99.90;;;;;;5035016;28;20740;-59
2021/01/27 09:48:21;;;;;;;4.20;3.80;;;3.50;99.90;;;;;;5035130;28;20503;-59
2021/01/27 09:50:58;;;;;;;3.97;3.57;;;3.50;99.90;;;;;;5034658;28;20505;-58
2021/01/27 09:53:30;;;;;;;3.87;3.50;;;3.50;99.90;;;;;;5034596;28;20465;-58
2021/01/27 09:55:56;;;;;;;4.63;4.10;;;3.10;99.90;;;;;;5034434;28;20405;-58
2021/01/27 09:58:23;;;;;;;4.93;4.03;;;3.00;99.90;;;;;;5034937;28;20417;-58
2021/01/27 10:00:50;;;;;;;6.00;4.27;;;2.80;99.90;;;;;;5034752;28;20426;-58
2021/01/27 10:03:39;;;;;;;4.90;4.17;;;3.10;99.90;;;;;;5034785;28;20417;-57
2021/01/27 10:06:48;;;;;;;7.27;4.30;;;3.20;99.90;;;;;;5040524;28;20451;-58
2021/01/27 10:09:18;;;;;;;7.23;4.13;;;3.10;99.90;;;;;;5013819;28;20457;-59
2021/01/27 10:11:45;;;;;;;3.73;3.33;;;2.80;99.90;;;;;;5042273;28;20386;-59
2021/01/27 10:14:32;;;;;;;5.30;3.60;;;2.90;99.90;;;;;;5038775;28;20407;-59
2021/01/27 10:17:01;;;;;;;3.60;3.30;;;2.80;99.90;;;;;;5035182;28;20767;-57
2021/01/27 10:19:43;;;;;;;4.97;4.40;;;2.90;99.90;;;;;;5037595;28;20397;-58
2021/01/27 10:22:10;;;;;;;5.50;3.60;;;2.90;99.90;;;;;;5040909;28;20444;-61
2021/01/27 10:25:27;;;;;;;4.00;3.70;;;2.90;99.90;;;;;;5040602;28;20442;-60
2021/01/27 10:28:06;;;;;;;3.73;3.33;;;2.80;99.90;;;;;;5010549;28;20527;-60
2021/01/27 10:30:42;;;;;;;4.93;3.27;;;2.80;99.90;;;;;;5036076;28;20425;-60
2021/01/27 10:33:33;;;;;;;6.30;3.10;;;2.80;99.90;;;;;;5036250;28;20382;-59
2021/01/27 10:35:59;;;;;;;2.90;2.70;;;2.80;99.90;;;;;;5034328;28;20394;-58
2021/01/27 10:38:26;;;;;;;4.50;3.23;;;2.90;99.90;;;;;;5034289;28;20406;-60
2021/01/27 10:41:20;;;;;;;4.73;3.40;;;2.90;99.90;;;;;;5034790;28;20421;-59
2021/01/27 10:43:46;;;;;;;5.63;3.70;;;3.10;99.90;;;;;;5035195;28;20405;-59
2021/01/27 10:46:34;;;;;;;2.73;2.43;;;3.10;99.90;;;;;;5034769;28;20403;-59
2021/01/27 10:49:00;;;;;;;4.00;2.87;;;3.00;99.90;;;;;;5035806;28;20198;-58
2021/01/27 10:51:26;;;;;;;3.00;2.53;;;2.80;99.90;;;;;;5034684;28;20505;-59
2021/01/27 10:53:53;;;;;;;3.27;2.97;;;2.90;99.90;;;;;;5033774;28;20409;-60
2021/01/27 10:56:18;;;;;;;4.10;3.67;;;3.00;99.90;;;;;;5034506;28;20422;-60
2021/01/27 10:58:44;;;;;;;2.90;2.70;;;3.20;99.90;;;;;;5034889;28;20506;-59
2021/01/27 11:01:10;;;;;;;3.40;3.10;;;3.20;99.90;;;;;;5033919;28;20190;-59
2021/01/27 11:03:35;;;;;;;3.50;2.90;;;2.90;99.90;;;;;;5033920;28;20510;-58
2021/01/27 11:06:02;;;;;;;3.13;2.67;;;2.90;99.90;;;;;;5033981;28;20226;-57
2021/01/27 11:08:33;;;;;;;3.87;2.70;;;2.90;99.90;;;;;;5034091;28;20195;-60
2021/01/27 11:11:00;;;;;;;3.30;2.97;;;3.10;99.90;;;;;;5033494;28;20521;-59
2021/01/27 11:13:27;;;;;;;3.43;3.00;;;3.40;99.90;;;;;;5033857;28;20434;-59
2021/01/27 11:15:53;;;;;;;4.30;3.10;;;3.60;99.90;;;;;;5036556;28;20886;-59
2021/01/27 11:18:19;;;;;;;3.73;3.43;;;3.70;99.90;;;;;;5037926;28;20417;-56
2021/01/27 11:20:46;;;;;;;3.17;2.83;;;3.60;99.90;;;;;;5037244;28;20199;-59
2021/01/27 11:23:12;;;;;;;4.53;3.07;;;3.60;99.90;;;;;;5036308;28;20410;-59
2021/01/27 11:25:37;;;;;;;3.23;2.87;;;3.70;99.90;;;;;;5036534;28;20406;-59
2021/01/27 11:28:03;;;;;;;4.90;3.50;;;3.80;99.90;;;;;;5036468;28;20265;-59
2021/01/27 11:30:29;;;;;;;3.80;3.37;;;3.80;99.90;;;;;;5024230;28;20677;-60
2021/01/27 11:32:55;;;;;;;3.77;2.97;;;3.70;99.90;;;;;;5036222;28;20176;-58
2021/01/27 11:35:22;;;;;;;3.50;2.90;;;3.90;99.90;;;;;;5036569;28;20464;-60
2021/01/27 11:37:48;;;;;;;4.90;2.73;;;3.80;99.90;;;;;;5036244;28;20452;-59
2021/01/27 11:40:16;;;;;;;4.00;3.00;;;3.90;99.90;;;;;;5036289;28;20433;-60
2021/01/27 11:42:41;;;;;;;4.33;2.90;;;4.10;99.90;;;;;;5036219;28;20421;-60
2021/01/27 11:45:09;;;;;;;5.80;3.00;;;4.40;99.90;;;;;;5035812;28;20898;-60
2021/01/27 11:47:35;;;;;;;4.17;2.63;;;4.40;99.90;;;;;;5036029;28;20179;-60
2021/01/27 11:50:01;;;;;;;2.80;2.60;;;4.10;99.90;;;;;;5035921;28;20466;-60
2021/01/27 11:52:26;;;;;;;2.90;2.30;;;4.00;99.90;;;;;;5035526;28;20407;-59
2021/01/27 11:54:52;;;;;;;1.67;1.57;;;4.20;99.90;;;;;;5036033;28;20164;-59
2021/01/27 11:57:19;;;;;;;3.20;2.30;;;3.90;99.90;;;;;;5036054;28;20208;-59
2021/01/27 11:59:45;;;;;;;2.30;2.10;;;3.70;99.90;;;;;;5035797;28;20226;-60
2021/01/27 12:02:11;;;;;;;2.33;2.00;;;3.80;99.90;;;;;;5035882;28;20418;-59
2021/01/27 12:04:36;;;;;;;3.13;2.17;;;3.70;99.90;;;;;;5035668;28;20406;-60
2021/01/27 12:07:04;;;;;;;3.40;2.20;;;3.70;99.90;;;;;;5035856;28;20179;-60
2021/01/27 12:09:29;;;;;;;3.37;2.60;;;3.90;99.90;;;;;;5035349;28;20221;-60
2021/01/27 12:11:56;;;;;;;3.30;2.50;;;4.00;99.90;;;;;;5035447;28;20898;-60
2021/01/27 12:14:22;;;;;;;3.40;2.23;;;4.20;99.90;;;;;;5035556;28;20628;-60
2021/01/27 12:16:48;;;;;;;2.73;2.27;;;4.30;99.90;;;;;;5035286;28;20847;-60
2021/01/27 12:19:13;;;;;;;2.63;2.20;;;4.00;99.90;;;;;;5035983;28;20410;-60
2021/01/27 12:21:39;;;;;;;3.10;2.23;;;4.00;99.90;;;;;;5035393;28;20457;-60
2021/01/27 12:24:05;;;;;;;5.17;2.53;;;4.00;99.90;;;;;;5035539;28;20462;-60
2021/01/27 12:26:31;;;;;;;5.93;2.30;;;3.90;99.90;;;;;;5034812;28;20582;-60
2021/01/27 12:28:57;;;;;;;3.93;2.47;;;4.20;99.90;;;;;;5035021;28;20223;-61
2021/01/27 12:31:23;;;;;;;4.00;2.27;;;4.10;99.90;;;;;;5035169;28;20438;-61
2021/01/27 12:33:49;;;;;;;2.63;2.43;;;4.10;99.90;;;;;;5035262;28;20419;-60
2021/01/27 12:36:14;;;;;;;2.60;1.77;;;4.30;99.90;;;;;;5035889;28;20593;-59
2021/01/27 12:38:40;;;;;;;2.97;2.40;;;4.20;99.90;;;;;;5034879;28;20175;-60
2021/01/27 12:41:05;;;;;;;2.60;2.23;;;4.10;99.90;;;;;;5016888;28;20282;-59
2021/01/27 12:43:31;;;;;;;2.73;2.50;;;3.90;99.90;;;;;;5035414;28;20190;-60
2021/01/27 12:45:56;;;;;;;3.83;2.10;;;4.00;99.90;;;;;;5035441;28;20230;-60
2021/01/27 12:48:22;;;;;;;2.17;1.80;;;3.90;99.90;;;;;;5034997;28;20191;-60
2021/01/27 12:50:48;;;;;;;2.33;2.13;;;3.90;99.90;;;;;;5034763;28;20194;-59
2021/01/27 12:53:14;;;;;;;3.30;2.30;;;3.70;99.90;;;;;;5035251;28;20413;-60
2021/01/27 12:55:39;;;;;;;3.03;2.30;;;3.70;99.90;;;;;;5034660;28;20171;-60
2021/01/27 12:58:05;;;;;;;2.00;1.80;;;3.80;99.90;;;;;;5037131;28;20528;-60
2021/01/27 13:00:31;;;;;;;4.37;2.07;;;3.80;99.90;;;;;;5016776;28;20605;-60
2021/01/27 13:02:57;;;;;;;2.93;2.10;;;3.70;99.90;;;;;;5034494;28;20167;-60
2021/01/27 13:05:25;;;;;;;4.57;2.53;;;3.80;99.90;;;;;;5034541;28;20560;-60
2021/01/27 13:07:51;;;;;;;3.00;2.23;;;3.80;99.90;;;;;;5034731;28;20195;-59
2021/01/27 13:10:18;;;;;;;2.23;2.03;;;3.90;99.90;;;;;;5034206;28;20742;-60
2021/01/27 13:12:44;;;;;;;2.80;2.03;;;3.90;99.90;;;;;;5034664;28;20407;-60
2021/01/27 13:15:14;;;;;;;2.73;2.53;;;3.90;99.90;;;;;;5034417;28;20406;-60
2021/01/27 13:17:40;;;;;;;2.60;2.40;;;3.80;99.90;;;;;;5034077;28;20402;-58
2021/01/27 13:20:09;;;;;;;2.80;2.27;;;3.80;99.90;;;;;;5033806;28;20445;-60
2021/01/27 13:22:39;;;;;;;4.47;3.00;;;3.60;99.90;;;;;;5034204;28;20421;-58
2021/01/27 13:25:06;;;;;;;4.30;2.70;;;3.80;99.90;;;;;;5034563;28;20887;-59
2021/01/27 13:27:31;;;;;;;2.27;2.17;;;3.60;99.90;;;;;;5033788;28;20902;-57